createdAt,value
2019-06-01T00:00:10.628Z,0
2019-06-01T00:01:02.808Z,0
2019-06-01T00:02:01.762Z,0
2019-06-01T00:03:01.898Z,0
2019-06-01T00:04:02.123Z,0
2019-06-01T00:05:02.046Z,0
2019-06-01T00:06:02.155Z,0
2019-06-01T00:07:02.223Z,0
2019-06-01T00:08:02.308Z,0
2019-06-01T00:09:02.460Z,0
2019-06-01T00:10:02.554Z,0
2019-06-01T00:11:02.655Z,0
2019-06-01T00:12:02.758Z,0
2019-06-01T00:13:02.841Z,0
2019-06-01T00:14:02.957Z,0
2019-06-01T00:15:03.028Z,0
2019-06-01T00:16:03.088Z,0
2019-06-01T00:17:03.167Z,0
2019-06-01T00:18:03.232Z,0
2019-06-01T00:19:03.337Z,0
2019-06-01T00:20:04.480Z,0
2019-06-01T00:21:03.541Z,0
2019-06-01T00:22:03.606Z,0
2019-06-01T00:23:03.777Z,0
2019-06-01T00:24:03.842Z,0
2019-06-01T00:25:03.923Z,0
2019-06-01T00:26:03.980Z,0
2019-06-01T00:27:04.057Z,0
2019-06-01T00:28:04.122Z,0
2019-06-01T00:29:04.184Z,0
2019-06-01T00:30:04.283Z,0
2019-06-01T00:31:05.341Z,0
2019-06-01T00:32:05.419Z,0
2019-06-01T00:33:04.491Z,0
2019-06-01T00:34:04.587Z,0
2019-06-01T00:35:04.742Z,0
2019-06-01T00:36:04.820Z,0
2019-06-01T00:37:04.878Z,0
2019-06-01T00:38:05.068Z,0
2019-06-01T00:39:05.169Z,0
2019-06-01T00:40:05.367Z,0
2019-06-01T00:41:05.427Z,0
2019-06-01T00:42:05.495Z,0
2019-06-01T00:43:05.572Z,0
2019-06-01T00:44:05.626Z,0
2019-06-01T00:45:05.769Z,0
2019-06-01T00:46:05.840Z,0
2019-06-01T00:47:05.898Z,0
2019-06-01T00:48:06.999Z,0
2019-06-01T00:49:06.066Z,0
2019-06-01T00:50:06.158Z,0
2019-06-01T00:51:06.216Z,0
2019-06-01T00:52:06.267Z,0
2019-06-01T00:53:06.360Z,0
2019-06-01T00:54:06.432Z,0
2019-06-01T00:55:06.521Z,0
2019-06-01T00:56:06.577Z,0
2019-06-01T00:57:06.640Z,0
2019-06-01T00:58:06.701Z,0
2019-06-01T00:59:06.768Z,0
2019-06-01T01:00:06.954Z,0
2019-06-01T01:01:07.022Z,0
2019-06-01T01:02:07.085Z,0
2019-06-01T01:03:07.147Z,0
2019-06-01T01:04:07.223Z,0
2019-06-01T01:05:08.321Z,0
2019-06-01T01:06:07.406Z,0
2019-06-01T01:07:07.489Z,0
2019-06-01T01:08:07.540Z,0
2019-06-01T01:09:07.643Z,0
2019-06-01T01:10:07.748Z,0
2019-06-01T01:11:07.834Z,0
2019-06-01T01:12:07.897Z,0
2019-06-01T01:13:07.967Z,0
2019-06-01T01:14:08.036Z,0
2019-06-01T01:15:08.112Z,0
2019-06-01T01:16:08.209Z,0
2019-06-01T01:17:08.289Z,0
2019-06-01T01:18:08.345Z,0
2019-06-01T01:19:08.407Z,0
2019-06-01T01:20:08.469Z,0
2019-06-01T01:21:08.570Z,0
2019-06-01T01:22:08.640Z,0
2019-06-01T01:23:08.703Z,0
2019-06-01T01:24:08.756Z,0
2019-06-01T01:25:08.845Z,0
2019-06-01T01:26:08.960Z,0
2019-06-01T01:27:09.012Z,0
2019-06-01T01:28:09.090Z,0
2019-06-01T01:29:09.152Z,0
2019-06-01T01:30:09.206Z,0
2019-06-01T01:31:13.634Z,0
2019-06-01T01:32:09.366Z,0
2019-06-01T01:33:09.431Z,0
2019-06-01T01:34:09.489Z,0
2019-06-01T01:35:09.620Z,0
2019-06-01T01:36:09.713Z,0
2019-06-01T01:37:09.786Z,0
2019-06-01T01:38:09.842Z,0
2019-06-01T01:39:09.924Z,0
2019-06-01T01:40:10.011Z,0
2019-06-01T01:41:10.118Z,0
2019-06-01T01:42:10.199Z,0
2019-06-01T01:43:10.267Z,0
2019-06-01T01:44:10.333Z,0
2019-06-01T01:45:10.398Z,0
2019-06-01T01:46:10.456Z,0
2019-06-01T01:47:10.564Z,0
2019-06-01T01:48:10.618Z,0
2019-06-01T01:49:10.682Z,0
2019-06-01T01:50:10.764Z,0
2019-06-01T01:51:10.826Z,0
2019-06-01T01:52:10.914Z,0
2019-06-01T01:53:10.981Z,0
2019-06-01T01:54:11.038Z,0
2019-06-01T01:55:11.126Z,0
2019-06-01T01:56:11.167Z,0
2019-06-01T01:57:11.258Z,0
2019-06-01T01:58:11.315Z,0
2019-06-01T01:59:11.378Z,0
2019-06-01T02:00:11.444Z,0
2019-06-01T02:01:21.962Z,0
2019-06-01T02:02:11.544Z,0
2019-06-01T02:03:11.669Z,0
2019-06-01T02:04:12.794Z,0
2019-06-01T02:05:11.841Z,0
2019-06-01T02:06:11.919Z,0
2019-06-01T02:07:12.025Z,0
2019-06-01T02:08:12.094Z,0
2019-06-01T02:09:12.154Z,0
2019-06-01T02:10:12.224Z,0
2019-06-01T02:11:12.274Z,0
2019-06-01T02:12:12.390Z,0
2019-06-01T02:13:12.493Z,0
2019-06-01T02:14:12.555Z,0
2019-06-01T02:15:12.638Z,0
2019-06-01T02:16:12.693Z,0
2019-06-01T02:17:12.763Z,0
2019-06-01T02:18:13.894Z,0
2019-06-01T02:19:12.947Z,0
2019-06-01T02:20:13.017Z,0
2019-06-01T02:21:13.084Z,0
2019-06-01T02:22:13.148Z,0
2019-06-01T02:23:13.252Z,0
2019-06-01T02:24:13.302Z,0
2019-06-01T02:25:13.360Z,0
2019-06-01T02:26:13.421Z,0
2019-06-01T02:27:13.482Z,0
2019-06-01T02:28:13.554Z,0
2019-06-01T02:29:13.628Z,0
2019-06-01T02:30:13.678Z,0
2019-06-01T02:31:13.729Z,0
2019-06-01T02:32:13.799Z,0
2019-06-01T02:33:13.875Z,0
2019-06-01T02:34:13.933Z,0
2019-06-01T02:35:13.986Z,0
2019-06-01T02:36:14.044Z,0
2019-06-01T02:37:14.102Z,0
2019-06-01T02:38:14.201Z,0
2019-06-01T02:39:14.271Z,0
2019-06-01T02:40:14.321Z,0
2019-06-01T02:41:14.392Z,0
2019-06-01T02:42:14.454Z,0
2019-06-01T02:43:14.671Z,0
2019-06-01T02:44:14.609Z,0
2019-06-01T02:45:14.685Z,0
2019-06-01T02:46:14.745Z,0
2019-06-01T02:47:14.799Z,0
2019-06-01T02:48:14.884Z,0
2019-06-01T02:49:14.963Z,0
2019-06-01T02:50:15.029Z,0
2019-06-01T02:51:15.081Z,0
2019-06-01T02:52:15.148Z,0
2019-06-01T02:53:15.204Z,0
2019-06-01T02:54:15.300Z,0
2019-06-01T02:55:15.365Z,0
2019-06-01T02:56:15.394Z,0
2019-06-01T02:57:15.469Z,0
2019-06-01T02:58:15.557Z,0
2019-06-01T02:59:15.659Z,0
2019-06-01T03:00:15.722Z,0
2019-06-01T03:01:15.798Z,0
2019-06-01T03:02:15.850Z,0
2019-06-01T03:03:15.931Z,0
2019-06-01T03:04:16.048Z,0
2019-06-01T03:05:16.123Z,0
2019-06-01T03:06:16.198Z,0
2019-06-01T03:07:16.256Z,0
2019-06-01T03:08:16.304Z,0
2019-06-01T03:09:16.396Z,0
2019-06-01T03:10:16.464Z,0
2019-06-01T03:11:16.544Z,0
2019-06-01T03:12:16.609Z,0
2019-06-01T03:13:16.686Z,0
2019-06-01T03:14:16.774Z,0
2019-06-01T03:15:16.835Z,0
2019-06-01T03:16:16.899Z,0
2019-06-01T03:17:16.958Z,0
2019-06-01T03:18:17.018Z,0
2019-06-01T03:19:17.119Z,0
2019-06-01T03:20:17.108Z,0
2019-06-01T03:21:17.268Z,0
2019-06-01T03:22:17.420Z,0
2019-06-01T03:23:17.437Z,0
2019-06-01T03:24:17.531Z,0
2019-06-01T03:25:17.578Z,5.625
2019-06-01T03:26:17.587Z,5.625
2019-06-01T03:27:17.707Z,5.625
2019-06-01T03:28:17.693Z,5.625
2019-06-01T03:29:17.750Z,5.625
2019-06-01T03:30:17.732Z,5.625
2019-06-01T03:31:17.894Z,5.625
2019-06-01T03:32:33.663Z,5.625
2019-06-01T03:33:18.032Z,5.625
2019-06-01T03:34:18.108Z,5.625
2019-06-01T03:35:18.100Z,11.25
2019-06-01T03:36:18.093Z,11.25
2019-06-01T03:37:18.098Z,11.25
2019-06-01T03:38:18.093Z,11.25
2019-06-01T03:39:18.163Z,11.25
2019-06-01T03:40:23.659Z,11.25
2019-06-01T03:41:18.151Z,11.25
2019-06-01T03:42:18.168Z,11.25
2019-06-01T03:43:18.190Z,11.25
2019-06-01T03:44:18.292Z,11.25
2019-06-01T03:45:18.349Z,11.25
2019-06-01T03:46:18.351Z,16.875
2019-06-01T03:47:18.400Z,16.875
2019-06-01T03:48:19.430Z,16.875
2019-06-01T03:49:18.430Z,16.875
2019-06-01T03:50:18.535Z,16.875
2019-06-01T03:51:18.570Z,16.875
2019-06-01T03:52:18.610Z,16.875
2019-06-01T03:53:18.616Z,16.875
2019-06-01T03:54:18.669Z,22.5
2019-06-01T03:55:18.810Z,22.5
2019-06-01T03:56:18.851Z,22.5
2019-06-01T03:57:18.875Z,22.5
2019-06-01T03:58:18.880Z,22.5
2019-06-01T03:59:18.906Z,22.5
2019-06-01T04:00:18.928Z,22.5
2019-06-01T04:01:18.928Z,22.5
2019-06-01T04:02:32.398Z,22.5
2019-06-01T04:03:18.950Z,28.125
2019-06-01T04:04:18.970Z,28.125
2019-06-01T04:05:19.009Z,28.125
2019-06-01T04:06:19.011Z,28.125
2019-06-01T04:07:19.019Z,28.125
2019-06-01T04:08:19.040Z,28.125
2019-06-01T04:09:19.051Z,28.125
2019-06-01T04:10:19.100Z,28.125
2019-06-01T04:11:19.104Z,28.125
2019-06-01T04:12:19.125Z,33.75
2019-06-01T04:13:19.131Z,33.75
2019-06-01T04:14:19.205Z,33.75
2019-06-01T04:15:19.244Z,33.75
2019-06-01T04:16:19.295Z,33.75
2019-06-01T04:17:19.311Z,33.75
2019-06-01T04:18:19.375Z,33.75
2019-06-01T04:19:19.386Z,33.75
2019-06-01T04:20:19.517Z,33.75
2019-06-01T04:21:19.615Z,33.75
2019-06-01T04:22:19.659Z,33.75
2019-06-01T04:23:19.700Z,33.75
2019-06-01T04:24:19.754Z,33.75
2019-06-01T04:25:19.776Z,33.75
2019-06-01T04:26:19.883Z,33.75
2019-06-01T04:27:19.870Z,33.75
2019-06-01T04:28:19.920Z,39.375
2019-06-01T04:29:19.945Z,39.375
2019-06-01T04:30:20.007Z,39.375
2019-06-01T04:31:20.075Z,39.375
2019-06-01T04:32:20.172Z,39.375
2019-06-01T04:33:20.217Z,39.375
2019-06-01T04:34:20.270Z,45
2019-06-01T04:35:20.287Z,45
2019-06-01T04:36:20.327Z,45
2019-06-01T04:37:21.055Z,45
2019-06-01T04:38:20.541Z,45
2019-06-01T04:39:21.181Z,45
2019-06-01T04:40:20.529Z,50.625
2019-06-01T04:41:20.567Z,50.625
2019-06-01T04:42:20.589Z,50.625
2019-06-01T04:43:20.582Z,50.625
2019-06-01T04:44:20.613Z,50.625
2019-06-01T04:45:20.641Z,50.625
2019-06-01T04:46:20.679Z,50.625
2019-06-01T04:47:20.681Z,50.625
2019-06-01T04:48:20.760Z,50.625
2019-06-01T04:49:21.180Z,50.625
2019-06-01T04:50:20.798Z,50.625
2019-06-01T04:51:20.837Z,56.25
2019-06-01T04:52:20.834Z,56.25
2019-06-01T04:53:21.834Z,56.25
2019-06-01T04:54:20.828Z,56.25
2019-06-01T04:55:20.857Z,56.25
2019-06-01T04:56:20.944Z,56.25
2019-06-01T04:57:20.923Z,56.25
2019-06-01T04:58:20.925Z,56.25
2019-06-01T04:59:20.982Z,56.25
2019-06-01T05:00:27.187Z,56.25
2019-06-01T05:01:21.060Z,56.25
2019-06-01T05:02:21.126Z,56.25
2019-06-01T05:03:21.180Z,56.25
2019-06-01T05:04:21.296Z,56.25
2019-06-01T05:05:21.402Z,50.625
2019-06-01T05:06:21.489Z,50.625
2019-06-01T05:07:21.570Z,50.625
2019-06-01T05:08:21.614Z,50.625
2019-06-01T05:09:21.706Z,50.625
2019-06-01T05:10:21.810Z,50.625
2019-06-01T05:11:21.858Z,50.625
2019-06-01T05:12:21.927Z,50.625
2019-06-01T05:13:22.019Z,50.625
2019-06-01T05:14:22.052Z,45
2019-06-01T05:15:22.081Z,45
2019-06-01T05:16:22.100Z,45
2019-06-01T05:17:22.191Z,45
2019-06-01T05:18:22.226Z,45
2019-06-01T05:19:22.290Z,45
2019-06-01T05:20:22.301Z,50.625
2019-06-01T05:21:22.343Z,50.625
2019-06-01T05:22:22.404Z,50.625
2019-06-01T05:23:22.447Z,50.625
2019-06-01T05:24:22.462Z,50.625
2019-06-01T05:25:22.458Z,50.625
2019-06-01T05:26:22.454Z,50.625
2019-06-01T05:27:22.668Z,56.25
2019-06-01T05:28:22.706Z,56.25
2019-06-01T05:29:22.709Z,56.25
2019-06-01T05:30:22.706Z,56.25
2019-06-01T05:31:25.162Z,56.25
2019-06-01T05:32:22.875Z,56.25
2019-06-01T05:33:35.827Z,56.25
2019-06-01T05:34:23.039Z,56.25
2019-06-01T05:35:23.050Z,56.25
2019-06-01T05:36:23.087Z,56.25
2019-06-01T05:37:23.082Z,56.25
2019-06-01T05:38:23.114Z,56.25
2019-06-01T05:39:23.129Z,56.25
2019-06-01T05:40:23.150Z,56.25
2019-06-01T05:41:23.200Z,56.25
2019-06-01T05:42:23.226Z,61.875
2019-06-01T05:43:23.262Z,61.875
2019-06-01T05:44:23.262Z,61.875
2019-06-01T05:45:23.332Z,61.875
2019-06-01T05:46:23.300Z,61.875
2019-06-01T05:47:23.321Z,61.875
2019-06-01T05:48:26.681Z,61.875
2019-06-01T05:49:23.400Z,61.875
2019-06-01T05:50:23.397Z,61.875
2019-06-01T05:51:23.408Z,61.875
2019-06-01T05:52:23.421Z,61.875
2019-06-01T05:53:23.495Z,61.875
2019-06-01T05:54:23.546Z,67.5
2019-06-01T05:55:23.583Z,61.875
2019-06-01T05:56:23.606Z,61.875
2019-06-01T05:57:23.905Z,61.875
2019-06-01T05:58:23.680Z,61.875
2019-06-01T05:59:23.666Z,61.875
2019-06-01T06:00:23.681Z,61.875
2019-06-01T06:01:23.719Z,61.875
2019-06-01T06:02:23.773Z,61.875
2019-06-01T06:03:39.465Z,61.875
2019-06-01T06:04:23.857Z,61.875
2019-06-01T06:05:23.839Z,61.875
2019-06-01T06:06:24.035Z,61.875
2019-06-01T06:07:24.037Z,61.875
2019-06-01T06:08:24.119Z,67.5
2019-06-01T06:09:24.131Z,219.375
2019-06-01T06:10:24.164Z,495
2019-06-01T06:11:24.162Z,556.875
2019-06-01T06:12:24.333Z,506.25
2019-06-01T06:13:24.332Z,410.625
2019-06-01T06:14:24.356Z,247.5
2019-06-01T06:15:24.373Z,118.125
2019-06-01T06:16:24.387Z,84.375
2019-06-01T06:17:24.521Z,84.375
2019-06-01T06:18:24.441Z,84.375
2019-06-01T06:19:24.467Z,67.5
2019-06-01T06:20:24.501Z,61.875
2019-06-01T06:21:24.506Z,61.875
2019-06-01T06:22:24.502Z,61.875
2019-06-01T06:23:24.561Z,61.875
2019-06-01T06:24:24.597Z,61.875
2019-06-01T06:25:28.288Z,67.5
2019-06-01T06:26:24.611Z,67.5
2019-06-01T06:27:24.621Z,67.5
2019-06-01T06:28:26.578Z,67.5
2019-06-01T06:29:25.726Z,67.5
2019-06-01T06:30:24.768Z,67.5
2019-06-01T06:31:24.763Z,67.5
2019-06-01T06:32:24.793Z,67.5
2019-06-01T06:33:24.799Z,67.5
2019-06-01T06:34:24.829Z,67.5
2019-06-01T06:35:24.814Z,67.5
2019-06-01T06:36:24.805Z,73.125
2019-06-01T06:37:24.971Z,73.125
2019-06-01T06:38:24.953Z,73.125
2019-06-01T06:39:24.987Z,73.125
2019-06-01T06:40:25.170Z,73.125
2019-06-01T06:41:25.036Z,73.125
2019-06-01T06:42:25.065Z,78.75
2019-06-01T06:43:32.536Z,78.75
2019-06-01T06:44:25.295Z,78.75
2019-06-01T06:45:25.335Z,78.75
2019-06-01T06:46:26.335Z,78.75
2019-06-01T06:47:25.346Z,84.375
2019-06-01T06:48:25.390Z,90
2019-06-01T06:49:25.490Z,112.5
2019-06-01T06:50:25.681Z,123.75
2019-06-01T06:51:25.630Z,112.5
2019-06-01T06:52:25.807Z,95.625
2019-06-01T06:53:34.426Z,95.625
2019-06-01T06:54:26.081Z,95.625
2019-06-01T06:55:26.109Z,90
2019-06-01T06:56:26.150Z,90
2019-06-01T06:57:26.235Z,90
2019-06-01T06:58:26.487Z,95.625
2019-06-01T06:59:26.722Z,95.625
2019-06-01T07:00:26.998Z,101.25
2019-06-01T07:01:26.944Z,101.25
2019-06-01T07:02:27.041Z,123.75
2019-06-01T07:03:27.128Z,112.5
2019-06-01T07:04:27.351Z,157.5
2019-06-01T07:05:27.523Z,376.875
2019-06-01T07:06:26.365Z,556.875
2019-06-01T07:07:26.401Z,517.5
2019-06-01T07:08:26.401Z,410.625
2019-06-01T07:09:26.442Z,405
2019-06-01T07:10:26.528Z,511.875
2019-06-01T07:11:27.404Z,286.875
2019-06-01T07:12:27.499Z,258.75
2019-06-01T07:13:27.606Z,360
2019-06-01T07:14:27.543Z,489.375
2019-06-01T07:15:27.610Z,393.75
2019-06-01T07:16:27.633Z,433.125
2019-06-01T07:17:27.688Z,455.625
2019-06-01T07:18:27.728Z,433.125
2019-06-01T07:19:27.885Z,478.125
2019-06-01T07:20:27.897Z,551.25
2019-06-01T07:21:27.862Z,568.125
2019-06-01T07:22:27.885Z,607.5
2019-06-01T07:23:27.946Z,573.75
2019-06-01T07:24:28.070Z,618.75
2019-06-01T07:25:27.249Z,793.125
2019-06-01T07:26:28.144Z,911.25
2019-06-01T07:27:28.283Z,928.125
2019-06-01T07:28:28.250Z,945
2019-06-01T07:29:28.347Z,933.75
2019-06-01T07:30:28.410Z,950.625
2019-06-01T07:31:28.643Z,1001.25
2019-06-01T07:32:28.598Z,1018.125
2019-06-01T07:33:28.533Z,990
2019-06-01T07:34:37.610Z,1006.875
2019-06-01T07:35:28.965Z,978.75
2019-06-01T07:36:28.660Z,945
2019-06-01T07:37:28.542Z,961.875
2019-06-01T07:38:28.895Z,933.75
2019-06-01T07:39:29.033Z,945
2019-06-01T07:40:28.778Z,950.625
2019-06-01T07:41:28.796Z,1001.25
2019-06-01T07:42:29.476Z,1040.625
2019-06-01T07:43:28.937Z,1029.375
2019-06-01T07:44:29.234Z,1074.375
2019-06-01T07:45:29.023Z,1102.5
2019-06-01T07:46:28.969Z,1051.875
2019-06-01T07:47:29.163Z,1040.625
2019-06-01T07:48:29.151Z,871.875
2019-06-01T07:49:29.120Z,787.5
2019-06-01T07:50:28.573Z,849.375
2019-06-01T07:51:29.594Z,821.25
2019-06-01T07:52:28.649Z,956.25
2019-06-01T07:53:29.510Z,978.75
2019-06-01T07:54:28.801Z,1001.25
2019-06-01T07:55:29.708Z,1051.875
2019-06-01T07:56:28.924Z,1068.75
2019-06-01T07:57:29.788Z,1046.25
2019-06-01T07:58:29.002Z,1012.5
2019-06-01T07:59:30.313Z,973.125
2019-06-01T08:00:29.109Z,984.375
2019-06-01T08:01:30.885Z,900
2019-06-01T08:02:30.671Z,984.375
2019-06-01T08:03:32.645Z,945
2019-06-01T08:04:30.222Z,1035
2019-06-01T08:05:30.172Z,978.75
2019-06-01T08:06:30.856Z,1108.125
2019-06-01T08:07:29.359Z,1096.875
2019-06-01T08:08:29.511Z,1119.375
2019-06-01T08:09:29.600Z,1108.125
2019-06-01T08:10:29.671Z,1085.625
2019-06-01T08:11:32.821Z,1001.25
2019-06-01T08:12:29.712Z,933.75
2019-06-01T08:13:33.200Z,961.875
2019-06-01T08:14:30.573Z,1023.75
2019-06-01T08:15:29.852Z,1091.25
2019-06-01T08:16:29.987Z,1119.375
2019-06-01T08:17:30.081Z,1091.25
2019-06-01T08:18:30.131Z,1012.5
2019-06-01T08:19:30.088Z,990
2019-06-01T08:20:30.317Z,1096.875
2019-06-01T08:21:30.165Z,1096.875
2019-06-01T08:22:30.101Z,1125
2019-06-01T08:23:30.307Z,1186.875
2019-06-01T08:24:30.284Z,1198.125
2019-06-01T08:25:30.690Z,1091.25
2019-06-01T08:26:30.606Z,1018.125
2019-06-01T08:27:30.587Z,781.875
2019-06-01T08:28:30.866Z,680.625
2019-06-01T08:29:30.714Z,450
2019-06-01T08:30:30.701Z,270
2019-06-01T08:31:31.792Z,281.25
2019-06-01T08:32:30.784Z,241.875
2019-06-01T08:33:32.959Z,461.25
2019-06-01T08:34:31.053Z,393.75
2019-06-01T08:35:31.143Z,360
2019-06-01T08:36:31.614Z,376.875
2019-06-01T08:37:31.423Z,720
2019-06-01T08:38:31.652Z,562.5
2019-06-01T08:39:31.432Z,624.375
2019-06-01T08:40:31.435Z,331.875
2019-06-01T08:41:31.526Z,331.875
2019-06-01T08:42:31.573Z,303.75
2019-06-01T08:43:31.765Z,326.25
2019-06-01T08:44:31.672Z,264.375
2019-06-01T08:45:34.350Z,236.25
2019-06-01T08:46:31.713Z,241.875
2019-06-01T08:47:31.896Z,264.375
2019-06-01T08:48:31.920Z,309.375
2019-06-01T08:49:32.458Z,337.5
2019-06-01T08:50:31.905Z,331.875
2019-06-01T08:51:32.059Z,331.875
2019-06-01T08:52:32.171Z,376.875
2019-06-01T08:53:32.162Z,382.5
2019-06-01T08:54:32.262Z,343.125
2019-06-01T08:55:32.283Z,320.625
2019-06-01T08:56:32.282Z,343.125
2019-06-01T08:57:32.421Z,286.875
2019-06-01T08:58:32.462Z,455.625
2019-06-01T08:59:32.528Z,365.625
2019-06-01T09:00:32.605Z,298.125
2019-06-01T09:01:32.741Z,399.375
2019-06-01T09:02:32.774Z,607.5
2019-06-01T09:03:32.073Z,686.25
2019-06-01T09:04:32.789Z,900
2019-06-01T09:05:33.113Z,843.75
2019-06-01T09:06:33.170Z,787.5
2019-06-01T09:07:33.162Z,945
2019-06-01T09:08:33.236Z,1158.75
2019-06-01T09:09:33.110Z,759.375
2019-06-01T09:10:33.256Z,601.875
2019-06-01T09:11:33.248Z,652.5
2019-06-01T09:12:33.278Z,686.25
2019-06-01T09:13:33.263Z,680.625
2019-06-01T09:14:33.448Z,461.25
2019-06-01T09:15:33.709Z,579.375
2019-06-01T09:16:33.535Z,691.875
2019-06-01T09:17:33.438Z,388.125
2019-06-01T09:18:33.876Z,343.125
2019-06-01T09:19:33.561Z,348.75
2019-06-01T09:20:35.774Z,331.875
2019-06-01T09:21:33.565Z,331.875
2019-06-01T09:22:33.581Z,320.625
2019-06-01T09:23:33.741Z,320.625
2019-06-01T09:24:33.948Z,315
2019-06-01T09:25:33.801Z,343.125
2019-06-01T09:26:33.816Z,309.375
2019-06-01T09:27:33.916Z,298.125
2019-06-01T09:28:34.268Z,315
2019-06-01T09:29:34.063Z,320.625
2019-06-01T09:30:34.016Z,489.375
2019-06-01T09:31:34.352Z,551.25
2019-06-01T09:32:34.327Z,601.875
2019-06-01T09:33:35.042Z,360
2019-06-01T09:34:34.461Z,523.125
2019-06-01T09:35:52.209Z,562.5
2019-06-01T09:36:34.499Z,393.75
2019-06-01T09:37:34.924Z,309.375
2019-06-01T09:38:33.844Z,275.625
2019-06-01T09:39:35.016Z,281.25
2019-06-01T09:40:35.064Z,270
2019-06-01T09:41:34.544Z,275.625
2019-06-01T09:42:35.118Z,281.25
2019-06-01T09:43:34.973Z,270
2019-06-01T09:44:35.204Z,281.25
2019-06-01T09:45:34.589Z,270
2019-06-01T09:46:35.604Z,264.375
2019-06-01T09:47:35.534Z,298.125
2019-06-01T09:48:35.545Z,292.5
2019-06-01T09:49:35.702Z,292.5
2019-06-01T09:50:35.476Z,264.375
2019-06-01T09:51:35.661Z,264.375
2019-06-01T09:52:35.536Z,264.375
2019-06-01T09:53:35.967Z,264.375
2019-06-01T09:54:36.282Z,264.375
2019-06-01T09:55:36.327Z,264.375
2019-06-01T09:56:36.044Z,270
2019-06-01T09:57:36.090Z,270
2019-06-01T09:58:35.124Z,281.25
2019-06-01T09:59:36.021Z,270
2019-06-01T10:00:39.171Z,264.375
2019-06-01T10:01:36.595Z,264.375
2019-06-01T10:02:36.174Z,258.75
2019-06-01T10:03:36.438Z,275.625
2019-06-01T10:04:36.523Z,264.375
2019-06-01T10:05:36.470Z,264.375
2019-06-01T10:06:36.677Z,270
2019-06-01T10:07:36.979Z,320.625
2019-06-01T10:08:36.109Z,292.5
2019-06-01T10:09:35.854Z,309.375
2019-06-01T10:10:35.999Z,298.125
2019-06-01T10:11:36.049Z,376.875
2019-06-01T10:12:36.069Z,348.75
2019-06-01T10:13:36.353Z,461.25
2019-06-01T10:14:36.218Z,371.25
2019-06-01T10:15:36.506Z,697.5
2019-06-01T10:16:36.754Z,348.75
2019-06-01T10:17:37.021Z,405
2019-06-01T10:18:37.028Z,1276.875
2019-06-01T10:19:36.718Z,742.5
2019-06-01T10:20:36.930Z,1665
2019-06-01T10:21:36.221Z,1321.875
2019-06-01T10:22:37.159Z,1800
2019-06-01T10:23:36.593Z,1856.25
2019-06-01T10:24:37.210Z,1760.625
2019-06-01T10:25:36.519Z,1721.25
2019-06-01T10:26:37.589Z,1856.25
2019-06-01T10:27:38.641Z,1839.375
2019-06-01T10:28:37.639Z,1957.5
2019-06-01T10:29:36.773Z,1861.875
2019-06-01T10:30:37.822Z,1805.625
2019-06-01T10:31:40.080Z,1676.25
2019-06-01T10:32:37.774Z,1687.5
2019-06-01T10:33:37.356Z,1710
2019-06-01T10:34:37.728Z,1805.625
2019-06-01T10:35:37.093Z,1805.625
2019-06-01T10:36:37.994Z,1800
2019-06-01T10:37:37.551Z,1721.25
2019-06-01T10:38:37.381Z,1828.125
2019-06-01T10:39:37.201Z,1828.125
2019-06-01T10:40:37.558Z,1980
2019-06-01T10:41:37.409Z,2008.125
2019-06-01T10:42:37.963Z,2019.375
2019-06-01T10:43:37.682Z,1940.625
2019-06-01T10:44:41.488Z,1850.625
2019-06-01T10:45:37.769Z,1845
2019-06-01T10:46:37.968Z,1794.375
2019-06-01T10:47:38.207Z,1816.875
2019-06-01T10:48:38.065Z,1800
2019-06-01T10:49:37.993Z,1743.75
2019-06-01T10:50:38.387Z,1755
2019-06-01T10:51:38.235Z,1788.75
2019-06-01T10:52:38.301Z,1794.375
2019-06-01T10:53:38.148Z,1805.625
2019-06-01T10:54:38.267Z,1788.75
2019-06-01T10:55:38.357Z,1777.5
2019-06-01T10:56:38.463Z,1743.75
2019-06-01T10:57:38.472Z,1771.875
2019-06-01T10:58:54.376Z,1839.375
2019-06-01T10:59:38.406Z,1861.875
2019-06-01T11:00:46.608Z,1923.75
2019-06-01T11:01:39.089Z,1968.75
2019-06-01T11:02:38.783Z,2070
2019-06-01T11:03:38.729Z,1996.875
2019-06-01T11:04:38.922Z,1935
2019-06-01T11:05:38.819Z,1918.125
2019-06-01T11:06:44.583Z,1901.25
2019-06-01T11:07:39.019Z,1867.5
2019-06-01T11:08:39.004Z,1884.375
2019-06-01T11:09:38.965Z,1878.75
2019-06-01T11:12:22.551Z,1755
2019-06-01T11:13:22.587Z,1828.125
2019-06-01T11:14:22.688Z,1856.25
2019-06-01T11:15:22.729Z,1794.375
2019-06-01T11:16:22.755Z,1788.75
2019-06-01T11:17:22.793Z,1856.25
2019-06-01T11:18:22.801Z,1895.625
2019-06-01T11:19:22.905Z,1923.75
2019-06-01T11:20:22.930Z,1918.125
2019-06-01T11:21:22.969Z,1940.625
2019-06-01T11:22:23.039Z,1873.125
2019-06-01T11:23:23.050Z,1828.125
2019-06-01T11:24:23.087Z,1861.875
2019-06-01T11:25:23.275Z,1845
2019-06-01T11:26:23.172Z,1833.75
2019-06-01T11:27:23.206Z,1867.5
2019-06-01T11:28:23.212Z,1918.125
2019-06-01T11:29:23.207Z,1985.625
2019-06-01T11:30:23.235Z,1957.5
2019-06-01T11:31:23.258Z,1946.25
2019-06-01T11:32:23.334Z,1985.625
2019-06-01T11:33:23.371Z,2019.375
2019-06-01T11:34:23.398Z,2019.375
2019-06-01T11:35:23.396Z,2058.75
2019-06-01T11:36:23.406Z,2064.375
2019-06-01T11:37:23.436Z,1991.25
2019-06-01T11:38:23.487Z,1963.125
2019-06-01T11:39:23.511Z,1963.125
2019-06-01T11:40:23.719Z,1963.125
2019-06-01T11:41:23.556Z,2064.375
2019-06-01T11:42:23.567Z,2030.625
2019-06-01T11:43:23.617Z,1991.25
2019-06-01T11:44:23.612Z,2025
2019-06-01T11:45:23.641Z,1816.875
2019-06-01T11:46:23.664Z,1935
2019-06-01T11:47:23.737Z,1935
2019-06-01T11:48:23.803Z,1991.25
2019-06-01T11:49:23.821Z,1991.25
2019-06-01T11:50:23.866Z,1974.375
2019-06-01T11:51:23.884Z,1935
2019-06-01T11:52:23.918Z,1878.75
2019-06-01T11:53:23.960Z,1906.875
2019-06-01T11:54:24.010Z,1901.25
2019-06-01T11:55:24.067Z,1884.375
2019-06-01T11:56:24.079Z,1884.375
2019-06-01T11:57:24.132Z,1833.75
2019-06-01T11:58:24.246Z,1760.625
2019-06-01T11:59:24.368Z,1839.375
2019-06-01T12:00:24.417Z,1777.5
2019-06-01T12:01:25.060Z,1833.75
2019-06-01T12:02:24.562Z,1828.125
2019-06-01T12:03:24.615Z,1822.5
2019-06-01T12:04:24.665Z,1811.25
2019-06-01T12:05:24.667Z,1811.25
2019-06-01T12:06:24.682Z,1822.5
2019-06-01T12:07:24.713Z,1816.875
2019-06-01T12:08:24.718Z,1816.875
2019-06-01T12:09:24.769Z,1811.25
2019-06-01T12:10:24.798Z,1738.125
2019-06-01T12:11:24.807Z,1721.25
2019-06-01T12:12:24.795Z,1760.625
2019-06-01T12:13:24.831Z,1726.875
2019-06-01T12:14:24.867Z,1822.5
2019-06-01T12:15:26.690Z,1783.125
2019-06-01T12:16:24.923Z,1794.375
2019-06-01T12:17:24.972Z,1726.875
2019-06-01T12:18:25.007Z,1738.125
2019-06-01T12:19:25.100Z,1726.875
2019-06-01T12:20:25.205Z,1749.375
2019-06-01T12:21:25.338Z,1732.5
2019-06-01T12:22:25.348Z,1743.75
2019-06-01T12:23:25.377Z,1760.625
2019-06-01T12:24:25.810Z,1845
2019-06-01T12:25:25.504Z,1850.625
2019-06-01T12:26:25.530Z,1890
2019-06-01T12:27:25.525Z,1822.5
2019-06-01T12:28:25.587Z,1788.75
2019-06-01T12:29:25.623Z,1839.375
2019-06-01T12:30:26.678Z,1850.625
2019-06-01T12:31:25.670Z,1974.375
2019-06-01T12:32:25.726Z,2025
2019-06-01T12:33:25.730Z,1957.5
2019-06-01T12:34:25.795Z,1901.25
2019-06-01T12:35:25.824Z,1861.875
2019-06-01T12:36:25.865Z,1923.75
2019-06-01T12:37:36.395Z,1923.75
2019-06-01T12:38:25.863Z,1901.25
2019-06-01T12:39:25.892Z,1890
2019-06-01T12:40:25.954Z,1901.25
2019-06-01T12:41:26.016Z,1839.375
2019-06-01T12:42:26.033Z,1794.375
2019-06-01T12:43:26.079Z,1777.5
2019-06-01T12:44:26.477Z,1766.25
2019-06-01T12:45:26.471Z,1766.25
2019-06-01T12:46:26.257Z,1800
2019-06-01T12:47:26.764Z,1867.5
2019-06-01T12:48:26.769Z,1856.25
2019-06-01T12:49:26.564Z,1890
2019-06-01T12:50:26.639Z,1895.625
2019-06-01T12:51:26.687Z,1912.5
2019-06-01T12:52:26.703Z,1850.625
2019-06-01T12:53:26.715Z,1878.75
2019-06-01T12:54:26.757Z,1861.875
2019-06-01T12:55:26.832Z,1861.875
2019-06-01T12:56:26.909Z,1878.75
2019-06-01T12:57:26.956Z,1884.375
2019-06-01T12:58:26.984Z,1912.5
2019-06-01T12:59:27.036Z,1890
2019-06-01T13:00:27.137Z,1867.5
2019-06-01T13:01:27.132Z,1822.5
2019-06-01T13:02:27.157Z,1850.625